createdAt,value
2022-08-21T00:00:24.880Z,69.05
2022-08-21T00:02:58.897Z,70.37
2022-08-21T00:05:27.184Z,70.84
2022-08-21T00:07:55.124Z,70.78
2022-08-21T00:10:22.578Z,71.45
2022-08-21T00:12:50.467Z,72.25
2022-08-21T00:15:21.512Z,73.04
2022-08-21T00:17:49.572Z,73.91
2022-08-21T00:20:17.609Z,73.92
2022-08-21T00:22:45.323Z,71.96
2022-08-21T00:25:14.032Z,72.92
2022-08-21T00:27:43.384Z,71.33
2022-08-21T00:30:11.577Z,72.72
2022-08-21T00:32:51.113Z,72.65
2022-08-21T00:35:22.388Z,71.67
2022-08-21T00:37:50.094Z,73.36
2022-08-21T00:40:21.031Z,74.57
2022-08-21T00:42:48.724Z,73.76
2022-08-21T00:45:23.513Z,74.03
2022-08-21T00:47:52.289Z,74.38
2022-08-21T00:50:21.907Z,75.20
2022-08-21T00:52:52.812Z,75.27
2022-08-21T00:55:23.443Z,74.94
2022-08-21T00:57:55.044Z,74.35
2022-08-21T01:00:29.446Z,74.30
2022-08-21T01:02:58.634Z,73.86
2022-08-21T01:05:26.357Z,74.92
2022-08-21T01:07:54.724Z,75.63
2022-08-21T01:10:24.450Z,76.93
2022-08-21T01:12:56.153Z,81.26
2022-08-21T01:15:28.055Z,81.20
2022-08-21T01:17:55.529Z,81.57
2022-08-21T01:20:23.081Z,81.14
2022-08-21T01:23:04.825Z,82.59
2022-08-21T01:25:33.551Z,81.58
2022-08-21T01:28:07.586Z,79.88
2022-08-21T01:30:37.601Z,79.78
2022-08-21T01:33:04.721Z,79.06
2022-08-21T01:35:31.853Z,80.46
2022-08-21T01:37:58.949Z,80.88
2022-08-21T01:40:26.277Z,80.32
2022-08-21T01:42:54.294Z,78.95
2022-08-21T01:45:21.520Z,79.31
2022-08-21T01:47:48.673Z,79.83
2022-08-21T01:50:19.571Z,81.64
2022-08-21T01:52:47.575Z,80.96
2022-08-21T01:55:16.026Z,79.67
2022-08-21T01:57:43.673Z,82.51
2022-08-21T02:00:14.298Z,83.11
2022-08-21T02:02:42.100Z,81.08
2022-08-21T02:05:12.295Z,81.94
2022-08-21T02:07:46.161Z,81.75
2022-08-21T02:10:16.568Z,82.38
2022-08-21T02:12:43.750Z,81.56
2022-08-21T02:15:10.880Z,80.54
2022-08-21T02:17:50.848Z,80.97
2022-08-21T02:20:33.187Z,81.27
2022-08-21T02:23:01.226Z,79.98
2022-08-21T02:25:30.088Z,80.91
2022-08-21T02:27:58.542Z,83.18
2022-08-21T02:30:29.311Z,86.04
2022-08-21T02:32:57.425Z,83.06
2022-08-21T02:35:25.441Z,85.15
2022-08-21T02:37:59.546Z,86.06
2022-08-21T02:40:33.065Z,83.74
2022-08-21T02:43:01.111Z,85.11
2022-08-21T02:45:29.714Z,82.61
2022-08-21T02:48:00.341Z,81.82
2022-08-21T02:50:30.930Z,84.98
2022-08-21T02:52:58.499Z,87.20
2022-08-21T02:55:28.232Z,85.47
2022-08-21T02:57:56.935Z,83.78
2022-08-21T03:00:26.200Z,85.73
2022-08-21T03:02:54.420Z,87.04
2022-08-21T03:05:21.670Z,86.52
2022-08-21T03:07:49.383Z,86.47
2022-08-21T03:10:17.024Z,88.04
2022-08-21T03:12:44.320Z,85.79
2022-08-21T03:15:16.216Z,84.53
2022-08-21T03:17:43.654Z,85.40
2022-08-21T03:20:11.475Z,84.55
2022-08-21T03:22:38.640Z,85.56
2022-08-21T03:25:06.755Z,86.33
2022-08-21T03:27:34.995Z,85.82
2022-08-21T03:30:04.504Z,85.15
2022-08-21T03:32:32.526Z,86.40
2022-08-21T03:35:01.177Z,88.72
2022-08-21T03:37:28.970Z,91.72
2022-08-21T03:39:56.318Z,93.09
2022-08-21T03:42:24.172Z,89.06
2022-08-21T03:44:52.275Z,92.08
2022-08-21T03:47:19.503Z,91.56
2022-08-21T03:49:46.672Z,92.51
2022-08-21T03:52:13.852Z,93.06
2022-08-21T03:54:42.672Z,93.47
2022-08-21T03:57:11.060Z,92.02
2022-08-21T03:59:39.979Z,91.45
2022-08-21T04:02:08.204Z,91.69
2022-08-21T04:04:35.381Z,91.49
2022-08-21T04:07:03.436Z,91.74
2022-08-21T04:09:31.149Z,90.11
2022-08-21T04:11:59.827Z,93.06
2022-08-21T04:14:27.386Z,94.34
2022-08-21T04:16:54.515Z,94.88
2022-08-21T04:19:21.699Z,94.38
2022-08-21T04:21:50.529Z,92.57
2022-08-21T04:24:20.303Z,91.64
2022-08-21T04:26:48.064Z,93.49
2022-08-21T04:29:15.211Z,91.09
2022-08-21T04:31:44.527Z,90.55
2022-08-21T04:34:11.694Z,92.95
2022-08-21T04:36:39.080Z,95.44
2022-08-21T04:39:06.353Z,93.18
2022-08-21T04:41:37.385Z,96.03
2022-08-21T04:44:05.301Z,94.66
2022-08-21T04:46:32.462Z,95.34
2022-08-21T04:48:59.912Z,94.23
2022-08-21T04:51:32.986Z,94.13
2022-08-21T04:54:03.292Z,94.05
2022-08-21T04:56:36.766Z,94.04
2022-08-21T04:59:12.145Z,96.89
2022-08-21T05:01:40.752Z,94.73
2022-08-21T05:04:11.442Z,96.99
2022-08-21T05:06:41.949Z,96.18
2022-08-21T05:09:13.599Z,94.86
2022-08-21T05:11:41.840Z,95.75
2022-08-21T05:14:09.501Z,95.79
2022-08-21T05:16:37.821Z,94.79
2022-08-21T05:19:09.308Z,100.00
2022-08-21T05:21:38.406Z,96.41
2022-08-21T05:24:05.522Z,96.54
2022-08-21T05:26:32.992Z,96.83
2022-08-21T05:29:00.177Z,94.57
2022-08-21T05:31:27.382Z,96.79
2022-08-21T05:33:55.986Z,96.98
2022-08-21T05:36:23.300Z,97.04
2022-08-21T05:38:50.607Z,99.42
2022-08-21T05:41:18.118Z,97.10
2022-08-21T05:43:45.199Z,98.43
2022-08-21T05:46:12.392Z,97.35
2022-08-21T05:48:39.925Z,97.39
2022-08-21T05:51:10.546Z,97.00
2022-08-21T05:53:37.960Z,100.00
2022-08-21T05:56:06.051Z,100.00
2022-08-21T05:58:34.075Z,100.00
2022-08-21T06:01:03.112Z,100.00
2022-08-21T06:03:33.390Z,100.00
2022-08-21T06:06:01.013Z,100.00
2022-08-21T06:08:28.637Z,100.00
2022-08-21T06:10:58.397Z,100.00
2022-08-21T06:13:26.307Z,100.00
2022-08-21T06:16:23.459Z,100.00
2022-08-21T06:18:50.577Z,100.00
2022-08-21T06:21:18.116Z,100.00
2022-08-21T06:23:45.765Z,100.00
2022-08-21T06:26:14.595Z,100.00
2022-08-21T06:28:42.661Z,100.00
2022-08-21T06:31:18.367Z,100.00
2022-08-21T06:33:46.245Z,100.00
2022-08-21T06:36:13.429Z,100.00
2022-08-21T06:38:41.004Z,100.00
2022-08-21T06:41:08.935Z,100.00
2022-08-21T06:43:39.930Z,100.00
2022-08-21T06:46:08.618Z,100.00
2022-08-21T06:48:35.801Z,100.00
2022-08-21T06:51:03.728Z,100.00
2022-08-21T06:53:30.895Z,100.00
2022-08-21T06:55:58.041Z,100.00
2022-08-21T06:58:25.177Z,100.00
2022-08-21T07:00:52.409Z,98.07
2022-08-21T07:03:21.029Z,94.67
2022-08-21T07:05:48.301Z,95.18
2022-08-21T07:08:15.417Z,94.71
2022-08-21T07:10:42.609Z,92.76
2022-08-21T07:13:09.884Z,91.56
2022-08-21T07:15:37.067Z,90.35
2022-08-21T07:18:04.670Z,89.58
2022-08-21T07:20:32.635Z,88.83
2022-08-21T07:23:04.447Z,87.96
2022-08-21T07:25:32.259Z,86.16
2022-08-21T07:27:59.526Z,85.00
2022-08-21T07:30:27.138Z,84.84
2022-08-21T07:32:54.500Z,82.38
2022-08-21T07:35:22.601Z,81.66
2022-08-21T07:37:50.665Z,80.58
2022-08-21T07:40:19.105Z,80.66
2022-08-21T07:42:50.854Z,77.88
2022-08-21T07:45:21.405Z,76.75
2022-08-21T07:47:51.923Z,76.46
2022-08-21T07:50:21.339Z,75.86
2022-08-21T07:52:48.876Z,75.45
2022-08-21T07:55:20.565Z,74.60
2022-08-21T07:57:48.336Z,74.79
2022-08-21T08:00:18.028Z,75.90
2022-08-21T08:02:50.319Z,75.33
2022-08-21T08:05:19.989Z,75.05
2022-08-21T08:07:47.118Z,73.97
2022-08-21T08:10:14.613Z,72.88
2022-08-21T08:12:44.067Z,73.18
2022-08-21T08:15:17.053Z,71.34
2022-08-21T08:17:44.561Z,70.88
2022-08-21T08:20:13.845Z,70.48
2022-08-21T08:22:42.195Z,70.94
2022-08-21T08:25:10.838Z,71.39
2022-08-21T08:27:38.745Z,69.68
2022-08-21T08:30:08.933Z,68.77
2022-08-21T08:32:36.252Z,68.85
2022-08-21T08:35:05.109Z,67.83
2022-08-21T08:37:34.658Z,66.71
2022-08-21T08:40:03.568Z,67.01
2022-08-21T08:42:35.646Z,65.85
2022-08-21T08:45:16.864Z,65.92
2022-08-21T08:47:48.286Z,65.81
2022-08-21T08:50:22.802Z,66.03
2022-08-21T08:52:59.109Z,65.16
2022-08-21T08:55:34.998Z,65.58
2022-08-21T08:58:03.635Z,65.66
2022-08-21T09:00:31.926Z,65.72
2022-08-21T09:03:01.349Z,65.78
2022-08-21T09:05:30.743Z,64.49
2022-08-21T09:08:31.972Z,64.62
2022-08-21T09:11:10.095Z,63.93
2022-08-21T09:13:52.527Z,64.43
2022-08-21T09:16:32.985Z,63.64
2022-08-21T09:19:02.870Z,63.53
2022-08-21T09:21:54.078Z,63.87
2022-08-21T09:24:47.877Z,62.63
2022-08-21T09:27:20.459Z,62.91
2022-08-21T09:29:55.499Z,61.78
2022-08-21T09:32:37.323Z,62.04
2022-08-21T09:35:20.887Z,61.59
2022-08-21T09:38:03.733Z,61.21
2022-08-21T09:40:33.243Z,61.04
2022-08-21T09:43:05.202Z,60.58
2022-08-21T09:45:34.179Z,60.13
2022-08-21T09:48:18.562Z,59.70
2022-08-21T09:50:48.410Z,59.05
2022-08-21T09:53:17.237Z,59.21
2022-08-21T09:56:16.133Z,58.72
2022-08-21T09:58:46.829Z,58.70
2022-08-21T10:01:21.933Z,58.99
2022-08-21T10:04:02.222Z,58.95
2022-08-21T10:06:29.856Z,57.50
2022-08-21T10:09:08.262Z,57.99
2022-08-21T10:11:36.085Z,58.33
2022-08-21T10:14:12.326Z,57.98
2022-08-21T10:16:42.059Z,57.57
2022-08-21T10:19:16.621Z,57.78
2022-08-21T10:22:02.048Z,57.47
2022-08-21T10:24:30.777Z,57.89
2022-08-21T10:27:17.360Z,57.84
2022-08-21T10:30:00.654Z,56.88
2022-08-21T10:32:52.648Z,55.79
2022-08-21T10:35:32.909Z,56.76
2022-08-21T10:38:23.536Z,55.90
2022-08-21T10:41:02.127Z,56.37
2022-08-21T10:43:41.241Z,55.48
2022-08-21T10:46:16.859Z,54.86
2022-08-21T10:48:51.382Z,54.77
2022-08-21T10:51:36.637Z,54.38
2022-08-21T10:54:39.001Z,54.36
2022-08-21T10:57:26.097Z,53.79
2022-08-21T11:00:11.939Z,54.06
2022-08-21T11:02:57.946Z,53.05
2022-08-21T11:05:34.861Z,52.79
2022-08-21T11:08:11.319Z,52.50
2022-08-21T11:10:51.356Z,52.55
2022-08-21T11:13:45.709Z,52.40
2022-08-21T11:16:26.942Z,51.83
2022-08-21T11:19:06.024Z,51.39
2022-08-21T11:21:45.611Z,50.66
2022-08-21T11:24:31.518Z,50.83
2022-08-21T11:27:02.345Z,50.08
2022-08-21T11:29:36.717Z,49.69
2022-08-21T11:32:38.610Z,50.41
2022-08-21T11:35:07.060Z,49.89
2022-08-21T11:38:35.496Z,50.07
2022-08-21T11:41:22.309Z,49.98
2022-08-21T11:44:14.101Z,50.62
2022-08-21T11:46:47.161Z,50.36
2022-08-21T11:49:41.416Z,50.38
2022-08-21T11:52:14.395Z,49.99
2022-08-21T11:54:47.419Z,49.06
2022-08-21T11:57:21.334Z,49.68
2022-08-21T11:59:58.193Z,48.67
2022-08-21T12:02:32.437Z,48.93
2022-08-21T12:05:08.688Z,48.94
2022-08-21T12:08:04.503Z,48.53
2022-08-21T12:10:35.766Z,48.56
2022-08-21T12:13:40.389Z,48.93
2022-08-21T12:16:15.673Z,47.62
2022-08-21T12:18:44.185Z,47.93
2022-08-21T12:21:28.824Z,47.43
2022-08-21T12:24:18.896Z,47.68
2022-08-21T12:26:55.715Z,46.93
2022-08-21T12:29:35.164Z,46.76
2022-08-21T12:32:24.981Z,47.57
2022-08-21T12:35:01.901Z,46.58
2022-08-21T12:37:39.842Z,46.77
2022-08-21T12:40:22.668Z,46.45
2022-08-21T12:43:00.589Z,46.02
2022-08-21T12:45:43.061Z,45.81
2022-08-21T12:48:14.119Z,46.84
2022-08-21T12:50:54.969Z,45.30
2022-08-21T12:53:30.341Z,45.14
2022-08-21T12:56:02.733Z,45.00
2022-08-21T12:58:31.113Z,45.01
2022-08-21T13:01:14.271Z,43.90
2022-08-21T13:03:42.768Z,44.19
2022-08-21T13:06:17.247Z,43.83
2022-08-21T13:08:47.799Z,43.71
2022-08-21T13:11:32.448Z,43.97
2022-08-21T13:14:04.679Z,43.32
2022-08-21T13:16:32.971Z,43.57
2022-08-21T13:19:08.113Z,43.06
2022-08-21T13:21:42.591Z,42.29
2022-08-21T13:27:27.777Z,42.28
2022-08-21T13:30:05.645Z,40.81
2022-08-21T13:32:38.615Z,40.58
2022-08-21T13:35:11.546Z,41.21
2022-08-21T13:37:41.648Z,40.68
2022-08-21T13:40:15.778Z,39.81
2022-08-21T13:42:44.461Z,40.68
2022-08-21T13:45:23.793Z,40.82
2022-08-21T13:47:53.345Z,40.43
2022-08-21T13:50:23.954Z,39.93
2022-08-21T13:52:59.217Z,39.44
2022-08-21T13:55:34.414Z,39.74
2022-08-21T13:58:03.859Z,38.64
2022-08-21T14:00:35.662Z,39.16
2022-08-21T14:03:10.993Z,39.00
2022-08-21T14:05:47.039Z,39.43
2022-08-21T14:08:16.569Z,38.67
2022-08-21T14:10:55.964Z,38.56
2022-08-21T14:13:34.147Z,38.41
2022-08-21T14:16:14.639Z,37.57
2022-08-21T14:19:09.674Z,36.82
2022-08-21T14:21:44.706Z,36.39
2022-08-21T14:24:25.567Z,37.08
2022-08-21T14:26:56.870Z,36.27
2022-08-21T14:29:27.265Z,36.09
2022-08-21T14:32:16.553Z,36.76
2022-08-21T14:34:54.623Z,35.50
2022-08-21T14:37:24.092Z,35.95
2022-08-21T14:39:51.157Z,34.53
2022-08-21T14:42:18.286Z,29.01
2022-08-21T14:44:45.397Z,24.82
2022-08-21T14:47:12.621Z,24.82
2022-08-21T14:49:40.701Z,27.84
2022-08-21T14:52:07.815Z,28.92
2022-08-21T14:54:35.252Z,31.78
2022-08-21T14:57:06.947Z,32.16
2022-08-21T14:59:35.509Z,30.11
2022-08-21T15:02:05.092Z,25.49
2022-08-21T15:04:34.067Z,21.14
2022-08-21T15:07:01.474Z,26.37
2022-08-21T15:09:28.952Z,25.90
2022-08-21T15:11:59.480Z,27.71
2022-08-21T15:14:29.586Z,25.21
2022-08-21T15:16:57.193Z,22.17
2022-08-21T15:19:24.364Z,20.87
2022-08-21T15:21:51.525Z,23.56
2022-08-21T15:24:18.666Z,22.10
2022-08-21T15:26:46.258Z,20.68
2022-08-21T15:29:13.487Z,23.47
2022-08-21T15:31:56.623Z,21.01
2022-08-21T15:34:27.332Z,16.21
2022-08-21T15:36:57.056Z,14.58
2022-08-21T15:39:31.076Z,16.09
2022-08-21T15:41:59.696Z,16.26
2022-08-21T15:44:30.133Z,17.86
2022-08-21T15:46:57.878Z,22.57
2022-08-21T15:49:25.134Z,24.52
2022-08-21T15:51:52.451Z,24.72
2022-08-21T15:54:19.593Z,24.76
2022-08-21T15:56:51.444Z,21.63
2022-08-21T15:59:22.886Z,19.70
2022-08-21T16:01:51.576Z,18.15
2022-08-21T16:04:28.110Z,18.80
2022-08-21T16:06:59.972Z,22.53
2022-08-21T16:09:31.154Z,22.78
2022-08-21T16:12:01.111Z,24.38
2022-08-21T16:14:30.804Z,24.56
2022-08-21T16:16:58.598Z,27.55
2022-08-21T16:19:28.689Z,27.42
2022-08-21T16:21:55.817Z,27.03
2022-08-21T16:24:23.057Z,29.15
2022-08-21T16:26:57.963Z,29.98
2022-08-21T16:29:30.305Z,29.75
2022-08-21T16:31:57.418Z,30.35
2022-08-21T16:34:24.934Z,30.81
2022-08-21T16:36:52.122Z,30.74
2022-08-21T16:39:19.415Z,30.93
2022-08-21T16:41:49.575Z,31.15
2022-08-21T16:44:17.475Z,31.62
2022-08-21T16:46:44.992Z,31.68
2022-08-21T16:49:12.133Z,31.83
2022-08-21T16:51:39.302Z,32.13
2022-08-21T16:54:06.731Z,32.48
2022-08-21T16:56:35.189Z,32.78
2022-08-21T16:59:05.204Z,32.71
2022-08-21T17:01:34.173Z,32.34
2022-08-21T17:04:01.482Z,32.87
2022-08-21T17:06:30.298Z,32.96
2022-08-21T17:08:58.825Z,32.44
2022-08-21T17:11:37.162Z,33.00
2022-08-21T17:14:14.868Z,33.28
2022-08-21T17:16:45.945Z,32.93
2022-08-21T17:19:13.638Z,33.64
2022-08-21T17:21:41.234Z,33.29
2022-08-21T17:24:08.603Z,33.52
2022-08-21T17:26:37.127Z,32.46
2022-08-21T17:29:09.633Z,32.34
2022-08-21T17:31:38.804Z,31.96
2022-08-21T17:34:06.759Z,33.17
2022-08-21T17:36:35.091Z,33.67
2022-08-21T17:39:04.357Z,33.74
2022-08-21T17:41:31.636Z,34.31
2022-08-21T17:44:03.527Z,34.56
2022-08-21T17:46:31.070Z,34.27
2022-08-21T17:48:58.518Z,34.27
2022-08-21T17:51:28.949Z,34.49
2022-08-21T17:53:56.225Z,34.95
2022-08-21T17:56:29.371Z,35.75
2022-08-21T17:58:56.959Z,35.22
2022-08-21T18:01:27.579Z,35.45
2022-08-21T18:03:54.717Z,35.67
2022-08-21T18:06:21.961Z,36.04
2022-08-21T18:08:49.087Z,35.99
2022-08-21T18:11:23.718Z,36.47
2022-08-21T18:13:53.829Z,36.35
2022-08-21T18:16:21.935Z,36.00
2022-08-21T18:18:51.368Z,36.59
2022-08-21T18:21:18.688Z,36.37
2022-08-21T18:23:45.949Z,36.61
2022-08-21T18:26:16.093Z,37.07
2022-08-21T18:28:44.177Z,37.89
2022-08-21T18:31:13.033Z,38.36
2022-08-21T18:33:43.610Z,38.80
2022-08-21T18:36:24.423Z,39.13
2022-08-21T18:38:52.751Z,39.72
2022-08-21T18:41:19.900Z,39.86
2022-08-21T18:43:47.022Z,40.45
2022-08-21T18:46:14.692Z,40.56
2022-08-21T18:48:42.598Z,40.51
2022-08-21T18:51:11.295Z,40.96
2022-08-21T18:53:38.705Z,40.66
2022-08-21T18:56:08.235Z,41.43
2022-08-21T18:58:44.299Z,41.87
2022-08-21T19:01:12.290Z,42.13
2022-08-21T19:03:40.118Z,42.27
2022-08-21T19:06:11.800Z,42.52
2022-08-21T19:08:39.139Z,42.54
2022-08-21T19:11:07.006Z,42.69
2022-08-21T19:13:35.653Z,43.52
2022-08-21T19:16:05.210Z,42.86
2022-08-21T19:18:40.254Z,42.31
2022-08-21T19:21:08.252Z,43.01
2022-08-21T19:23:35.626Z,43.20
2022-08-21T19:26:07.311Z,43.21
2022-08-21T19:28:41.811Z,43.35
2022-08-21T19:31:19.744Z,43.73
2022-08-21T19:34:01.619Z,43.46
2022-08-21T19:36:30.267Z,43.77
2022-08-21T19:38:57.417Z,43.38
2022-08-21T19:41:28.099Z,43.06
2022-08-21T19:43:58.053Z,42.84
2022-08-21T19:46:32.525Z,43.17
2022-08-21T19:49:03.612Z,42.51
2022-08-21T19:51:34.673Z,45.54
2022-08-21T19:54:03.011Z,47.48
2022-08-21T19:56:34.256Z,48.47
2022-08-21T19:59:04.938Z,47.30
2022-08-21T20:01:34.770Z,48.67
2022-08-21T20:04:02.007Z,48.57
2022-08-21T20:06:29.263Z,49.08
2022-08-21T20:08:59.524Z,48.17
2022-08-21T20:11:31.502Z,48.44
2022-08-21T20:13:59.643Z,50.31
2022-08-21T20:16:28.826Z,48.79
2022-08-21T20:18:56.347Z,48.55
2022-08-21T20:21:23.503Z,48.08
2022-08-21T20:23:50.801Z,48.49
2022-08-21T20:26:19.261Z,48.68
2022-08-21T20:28:50.491Z,48.10
2022-08-21T20:31:20.483Z,48.58
2022-08-21T20:33:49.591Z,48.44
2022-08-21T20:36:21.260Z,48.66
2022-08-21T20:38:51.681Z,48.87
2022-08-21T20:41:30.546Z,49.38
2022-08-21T20:44:00.394Z,49.64
2022-08-21T20:46:29.702Z,50.48
2022-08-21T20:48:57.635Z,50.49
2022-08-21T20:51:31.617Z,50.58
2022-08-21T20:54:23.933Z,50.71
2022-08-21T20:57:03.605Z,51.06
2022-08-21T20:59:43.355Z,51.14
2022-08-21T21:02:55.769Z,51.87
2022-08-21T21:05:29.910Z,51.55
2022-08-21T21:08:03.162Z,51.15
2022-08-21T21:10:33.347Z,51.21
2022-08-21T21:13:08.655Z,51.53
2022-08-21T21:15:36.662Z,51.41
2022-08-21T21:18:13.255Z,51.70
2022-08-21T21:20:48.620Z,52.49
2022-08-21T21:23:30.252Z,53.10
2022-08-21T21:26:14.498Z,53.74
2022-08-21T21:28:51.955Z,53.91
2022-08-21T21:31:19.620Z,54.12
2022-08-21T21:33:47.833Z,54.69
2022-08-21T21:36:21.152Z,55.17
2022-08-21T21:38:56.091Z,56.26
2022-08-21T21:41:30.599Z,55.80
2022-08-21T21:44:06.945Z,56.07
2022-08-21T21:46:48.658Z,57.16
2022-08-21T21:49:58.201Z,58.09
2022-08-21T21:52:40.689Z,58.56
2022-08-21T21:55:13.826Z,58.69
2022-08-21T21:58:29.401Z,58.77
2022-08-21T22:01:12.007Z,59.06
2022-08-21T22:04:03.834Z,58.73
2022-08-21T22:06:58.923Z,58.63
2022-08-21T22:09:59.062Z,58.88
2022-08-21T22:12:49.578Z,58.15
2022-08-21T22:15:28.668Z,58.51
2022-08-21T22:18:07.564Z,58.16
2022-08-21T22:20:39.651Z,58.18
2022-08-21T22:23:12.747Z,58.14
2022-08-21T22:25:47.225Z,57.98
2022-08-21T22:31:21.112Z,58.44
2022-08-21T22:34:21.262Z,58.24
2022-08-21T22:36:59.494Z,58.62
2022-08-21T22:39:38.623Z,58.64
2022-08-21T22:42:25.599Z,58.62
2022-08-21T22:44:54.503Z,59.37
2022-08-21T22:47:39.496Z,59.60
2022-08-21T22:50:26.940Z,58.93
2022-08-21T22:52:59.973Z,58.74
2022-08-21T22:55:45.810Z,59.37
2022-08-21T22:58:33.105Z,59.45
2022-08-21T23:01:02.985Z,58.96
2022-08-21T23:03:42.974Z,59.39
2022-08-21T23:06:29.914Z,59.43
2022-08-21T23:09:00.369Z,59.75
2022-08-21T23:11:50.998Z,59.87
2022-08-21T23:14:18.784Z,60.14
2022-08-21T23:17:18.211Z,60.48
2022-08-21T23:19:48.149Z,60.41
2022-08-21T23:22:30.154Z,60.40
2022-08-21T23:25:12.408Z,60.09
2022-08-21T23:27:51.511Z,60.36
2022-08-21T23:30:23.535Z,60.31
2022-08-21T23:33:13.371Z,60.75
2022-08-21T23:36:33.270Z,61.32
2022-08-21T23:39:10.044Z,61.67
2022-08-21T23:41:58.575Z,61.74
2022-08-21T23:44:41.657Z,61.82
2022-08-21T23:47:34.747Z,62.06
2022-08-21T23:50:25.936Z,61.86
2022-08-21T23:53:08.921Z,61.50
2022-08-21T23:56:07.589Z,62.24
2022-08-21T23:58:59.683Z,62.93
